Time;durP1;ratioP1;P1;durP2;ratioP2;P2;SDS_P1;SDS_P2;PMS_P1;PMS_P2;Temp;Humidity;BMP_temperature;BMP_pressure;BME280_temperature;BME280_humidity;BME280_pressure;Samples;Min_cycle;Max_cycle;Signal;HPM_P1;HPM_P2
2023/01/02 00:01:19;;;;;;;7.30;3.80;;;16.80;99.90;;;;;;4213373;28;20755;-70
2023/01/02 00:03:21;;;;;;;5.43;3.80;;;16.80;99.90;;;;;;4212945;28;20628;-70
2023/01/02 00:05:24;;;;;;;5.10;3.65;;;16.80;99.90;;;;;;4203703;28;20215;-70
2023/01/02 00:07:26;;;;;;;6.55;3.90;;;16.80;99.90;;;;;;4203450;28;20280;-69
2023/01/02 00:09:28;;;;;;;6.28;3.85;;;16.80;99.90;;;;;;4212156;28;20218;-70
2023/01/02 00:11:31;;;;;;;6.82;4.00;;;16.80;99.90;;;;;;4202776;28;20211;-70
2023/01/02 00:13:33;;;;;;;5.68;3.88;;;16.90;99.90;;;;;;4203026;28;20223;-70
2023/01/02 00:15:35;;;;;;;5.78;4.00;;;16.80;99.90;;;;;;4202886;28;20240;-69
2023/01/02 00:17:39;;;;;;;5.75;3.50;;;16.80;99.90;;;;;;4212809;28;20218;-70
2023/01/02 00:19:41;;;;;;;5.30;4.00;;;16.80;99.90;;;;;;4213184;28;20214;-69
2023/01/02 00:21:44;;;;;;;4.93;3.45;;;16.80;99.90;;;;;;4205191;28;20578;-70
2023/01/02 00:23:46;;;;;;;5.18;3.80;;;16.90;99.90;;;;;;4212661;28;20215;-70
2023/01/02 00:25:49;;;;;;;5.40;3.50;;;16.80;99.90;;;;;;4200100;28;20219;-69
2023/01/02 00:27:51;;;;;;;6.40;3.90;;;16.80;99.90;;;;;;4212534;28;20222;-70
2023/01/02 00:29:53;;;;;;;5.45;3.67;;;16.80;99.90;;;;;;4204557;28;20210;-69
2023/01/02 00:31:56;;;;;;;5.25;3.40;;;16.80;99.90;;;;;;4203926;28;20293;-70
2023/01/02 00:33:59;;;;;;;5.78;3.65;;;16.80;99.90;;;;;;4210909;28;20618;-70
2023/01/02 00:36:05;;;;;;;5.05;3.80;;;16.80;99.90;;;;;;4212801;28;20613;-70
2023/01/02 00:38:07;;;;;;;5.53;3.90;;;16.80;99.90;;;;;;4203183;28;20625;-70
2023/01/02 00:40:12;;;;;;;4.82;3.72;;;16.80;99.90;;;;;;4206394;28;20275;-70
2023/01/02 00:42:15;;;;;;;4.25;3.65;;;16.80;99.90;;;;;;4208926;28;20238;-70
2023/01/02 00:44:17;;;;;;;6.93;4.18;;;16.90;99.90;;;;;;4212851;28;20612;-70
2023/01/02 00:46:19;;;;;;;5.65;3.58;;;16.80;99.90;;;;;;4212864;28;20214;-70
2023/01/02 00:48:22;;;;;;;5.55;3.60;;;16.80;99.90;;;;;;4212556;28;20215;-70
2023/01/02 00:50:25;;;;;;;4.93;3.67;;;16.80;99.90;;;;;;4212764;28;20540;-70
2023/01/02 00:52:28;;;;;;;4.82;3.42;;;16.80;99.90;;;;;;4210309;28;20210;-70
2023/01/02 00:54:30;;;;;;;4.43;3.67;;;16.80;99.90;;;;;;4203674;28;20214;-70
2023/01/02 00:56:33;;;;;;;5.15;3.80;;;16.80;99.90;;;;;;4210326;28;20557;-70
2023/01/02 00:58:35;;;;;;;4.38;3.55;;;16.80;99.90;;;;;;4212417;28;20283;-70
2023/01/02 01:00:38;;;;;;;6.40;3.58;;;16.80;99.90;;;;;;4212826;28;20214;-70
2023/01/02 01:02:41;;;;;;;4.60;3.40;;;16.80;99.90;;;;;;4212212;28;20230;-70
2023/01/02 01:04:43;;;;;;;4.80;3.55;;;16.80;99.90;;;;;;4212382;28;20210;-70
2023/01/02 01:06:47;;;;;;;4.80;3.85;;;16.80;99.90;;;;;;4212436;28;20268;-69
2023/01/02 01:08:49;;;;;;;5.18;3.35;;;16.80;99.90;;;;;;4212164;28;20219;-70
2023/01/02 01:10:51;;;;;;;6.05;3.50;;;16.80;99.90;;;;;;4212947;28;20263;-70
2023/01/02 01:12:54;;;;;;;5.18;3.58;;;16.80;99.90;;;;;;4212162;28;20276;-70
2023/01/02 01:14:56;;;;;;;7.18;3.83;;;16.80;99.90;;;;;;4205841;28;20215;-70
2023/01/02 01:16:59;;;;;;;5.45;3.75;;;16.80;99.90;;;;;;4201917;28;20214;-70
2023/01/02 01:19:01;;;;;;;5.28;3.53;;;16.80;99.90;;;;;;4212218;28;20259;-70
2023/01/02 01:21:07;;;;;;;4.32;3.20;;;16.80;99.90;;;;;;4213019;28;20307;-70
2023/01/02 01:23:11;;;;;;;4.10;3.38;;;16.80;99.90;;;;;;4206789;28;20259;-70
2023/01/02 01:25:13;;;;;;;4.80;3.15;;;16.90;99.90;;;;;;4207481;28;20859;-70
2023/01/02 01:27:16;;;;;;;4.65;3.70;;;16.80;99.90;;;;;;4209572;28;20280;-70
2023/01/02 01:29:18;;;;;;;5.00;3.50;;;16.80;99.90;;;;;;4206667;28;20260;-70
2023/01/02 01:31:21;;;;;;;5.57;3.40;;;16.80;99.90;;;;;;4215605;28;20206;-70
2023/01/02 01:33:24;;;;;;;5.30;3.13;;;16.80;99.90;;;;;;4213431;28;20260;-70
2023/01/02 01:35:26;;;;;;;5.85;3.78;;;16.90;99.90;;;;;;4204677;28;20223;-70
2023/01/02 01:37:28;;;;;;;6.55;4.13;;;16.80;99.90;;;;;;4204538;28;20219;-70
2023/01/02 01:39:32;;;;;;;5.07;3.33;;;16.80;99.90;;;;;;4215571;28;20214;-70
2023/01/02 01:41:34;;;;;;;4.85;3.47;;;16.80;99.90;;;;;;4204235;28;20215;-70
2023/01/02 01:43:39;;;;;;;5.53;3.67;;;16.80;99.90;;;;;;4210935;28;20218;-70
2023/01/02 01:45:43;;;;;;;6.20;3.95;;;16.80;99.90;;;;;;4205152;28;20231;-70
2023/01/02 01:47:50;;;;;;;5.07;3.97;;;16.80;99.90;;;;;;4214638;28;20320;-70
2023/01/02 01:49:58;;;;;;;4.85;3.63;;;16.80;99.90;;;;;;4215420;28;20574;-70
2023/01/02 01:52:04;;;;;;;4.80;3.30;;;16.80;99.90;;;;;;4215553;28;20202;-70
2023/01/02 01:54:09;;;;;;;5.53;3.58;;;16.80;99.90;;;;;;4215262;28;20643;-69
2023/01/02 01:56:14;;;;;;;5.68;3.80;;;16.80;99.90;;;;;;4207224;28;20617;-70
2023/01/02 01:58:21;;;;;;;3.92;3.15;;;16.80;99.90;;;;;;4212333;28;20215;-70
2023/01/02 02:00:23;;;;;;;5.30;3.45;;;16.80;99.90;;;;;;4215331;28;20222;-70
2023/01/02 02:02:28;;;;;;;4.57;3.15;;;16.80;99.90;;;;;;4213410;28;20284;-70
2023/01/02 02:04:30;;;;;;;5.22;3.80;;;16.80;99.90;;;;;;4208130;28;20256;-70
2023/01/02 02:06:33;;;;;;;3.95;3.55;;;16.80;99.90;;;;;;4215381;28;20270;-70
2023/01/02 02:08:39;;;;;;;5.70;3.47;;;16.80;99.90;;;;;;4214041;28;20265;-70
2023/01/02 02:10:42;;;;;;;4.68;3.72;;;16.80;99.90;;;;;;4215332;28;20580;-70
2023/01/02 02:12:46;;;;;;;4.20;3.00;;;16.80;99.90;;;;;;4210452;28;20211;-70
2023/01/02 02:14:48;;;;;;;5.60;3.40;;;16.80;99.90;;;;;;4211385;28;20210;-70
2023/01/02 02:16:56;;;;;;;3.67;3.10;;;16.80;99.90;;;;;;4203470;28;20218;-70
2023/01/02 02:19:32;;;;;;;4.85;3.55;;;16.80;99.90;;;;;;4205623;28;20271;-70
2023/01/02 02:21:54;;;;;;;5.68;3.60;;;16.70;99.90;;;;;;4206111;28;20255;-70
2023/01/02 02:24:21;;;;;;;5.63;3.40;;;16.80;99.90;;;;;;4214837;28;20305;-70
2023/01/02 02:26:59;;;;;;;4.75;3.45;;;16.80;99.90;;;;;;4214646;28;20259;-70
2023/01/02 02:29:34;;;;;;;6.70;3.47;;;16.80;99.90;;;;;;4214553;28;20559;-70
2023/01/02 02:31:49;;;;;;;4.50;3.45;;;16.70;99.90;;;;;;4209538;28;20205;-70
2023/01/02 02:33:58;;;;;;;4.40;3.63;;;16.80;99.90;;;;;;4214543;28;20263;-69
2023/01/02 02:36:09;;;;;;;6.18;3.40;;;16.80;99.90;;;;;;4213816;28;20231;-70
2023/01/02 02:38:17;;;;;;;5.35;3.90;;;16.80;99.90;;;;;;4214167;28;20211;-70
2023/01/02 02:40:29;;;;;;;5.40;3.60;;;16.70;99.90;;;;;;4209818;28;20243;-70
2023/01/02 02:42:42;;;;;;;5.13;3.45;;;16.70;99.90;;;;;;4214469;28;20242;-70
2023/01/02 02:44:53;;;;;;;5.70;3.58;;;16.70;99.90;;;;;;4214011;28;20210;-70
2023/01/02 02:47:02;;;;;;;6.38;3.47;;;16.80;99.90;;;;;;4214503;28;20215;-70
2023/01/02 02:49:09;;;;;;;6.43;3.80;;;16.80;99.90;;;;;;4214313;28;20674;-70
2023/01/02 02:51:19;;;;;;;5.07;3.33;;;16.80;99.90;;;;;;4214255;28;20214;-70
2023/01/02 02:53:24;;;;;;;4.50;3.38;;;16.80;99.90;;;;;;4207533;28;20259;-70
2023/01/02 02:55:30;;;;;;;4.88;3.10;;;16.80;99.90;;;;;;4204398;28;20222;-70
2023/01/02 02:57:34;;;;;;;4.90;3.40;;;16.70;99.90;;;;;;4208546;28;20259;-70
2023/01/02 02:59:38;;;;;;;4.63;3.45;;;16.70;99.90;;;;;;4214029;28;20231;-70
2023/01/02 03:01:41;;;;;;;4.18;3.30;;;16.70;99.90;;;;;;4213983;28;20214;-70
2023/01/02 03:03:44;;;;;;;5.28;3.20;;;16.80;99.90;;;;;;4213924;28;20234;-70
2023/01/02 03:06:04;;;;;;;5.18;3.92;;;16.80;99.90;;;;;;4209578;28;20210;-70
2023/01/02 03:08:11;;;;;;;4.90;3.70;;;16.70;99.90;;;;;;4212101;28;20260;-70
2023/01/02 03:10:21;;;;;;;4.40;3.35;;;16.80;99.90;;;;;;4213796;28;20215;-70
2023/01/02 03:12:35;;;;;;;6.40;3.85;;;16.80;99.90;;;;;;4214297;28;20674;-70
2023/01/02 03:14:43;;;;;;;4.65;3.50;;;16.80;99.90;;;;;;4213958;28;20668;-70
2023/01/02 03:16:50;;;;;;;4.05;3.17;;;16.80;99.90;;;;;;4209810;28;20260;-73
2023/01/02 03:19:01;;;;;;;4.50;3.22;;;16.80;99.90;;;;;;4205613;28;20259;-73
2023/01/02 03:21:10;;;;;;;6.10;3.90;;;16.70;99.90;;;;;;4207219;28;20211;-73
2023/01/02 03:23:18;;;;;;;4.97;3.70;;;16.80;99.90;;;;;;4205319;28;20260;-74
2023/01/02 03:25:22;;;;;;;4.38;3.17;;;16.70;99.90;;;;;;4205766;28;20620;-73
2023/01/02 03:27:27;;;;;;;4.32;3.38;;;16.70;99.90;;;;;;4199040;28;20215;-74
2023/01/02 03:29:34;;;;;;;5.95;3.78;;;16.70;99.90;;;;;;4199264;28;20285;-73
2023/01/02 03:31:40;;;;;;;4.47;3.53;;;16.70;99.90;;;;;;4202429;28;20219;-74
2023/01/02 03:33:48;;;;;;;4.72;3.30;;;16.70;99.90;;;;;;4207181;28;20206;-73
2023/01/02 03:35:55;;;;;;;4.50;3.33;;;16.80;99.90;;;;;;4199979;28;20272;-74
2023/01/02 03:37:59;;;;;;;4.50;3.63;;;16.80;99.90;;;;;;4202580;28;20263;-73
2023/01/02 03:40:07;;;;;;;3.78;2.88;;;16.70;99.90;;;;;;4207609;28;20210;-73
2023/01/02 03:42:14;;;;;;;3.95;3.28;;;16.80;99.90;;;;;;4212962;28;20262;-73
2023/01/02 03:44:17;;;;;;;5.10;3.75;;;16.80;99.90;;;;;;4199952;28;20231;-73
2023/01/02 03:46:29;;;;;;;5.32;3.40;;;16.80;99.90;;;;;;4197483;28;20219;-74
2023/01/02 03:48:35;;;;;;;4.82;3.28;;;16.80;99.90;;;;;;4213679;28;20214;-74
2023/01/02 03:50:44;;;;;;;4.93;3.80;;;16.80;99.90;;;;;;4200008;28;20272;-73
2023/01/02 03:52:48;;;;;;;4.30;3.20;;;16.80;99.90;;;;;;4208745;28;20264;-74
2023/01/02 03:54:51;;;;;;;4.88;3.50;;;16.70;99.90;;;;;;4196623;28;20716;-73
2023/01/02 03:56:57;;;;;;;5.00;3.30;;;16.80;99.90;;;;;;4207346;28;20215;-74
2023/01/02 03:59:08;;;;;;;3.67;2.90;;;16.70;99.90;;;;;;4210592;28;20230;-74
2023/01/02 04:01:17;;;;;;;4.18;3.38;;;16.70;99.90;;;;;;4206646;28;20630;-70
2023/01/02 04:03:26;;;;;;;5.90;3.30;;;16.70;99.90;;;;;;4213309;28;20750;-70
2023/01/02 04:05:34;;;;;;;5.35;3.17;;;16.70;99.90;;;;;;4213541;28;20218;-70
2023/01/02 04:07:41;;;;;;;4.80;3.30;;;16.70;99.90;;;;;;4207209;28;20209;-70
2023/01/02 04:09:47;;;;;;;4.72;3.25;;;16.70;99.90;;;;;;4213378;28;20210;-70
2023/01/02 04:11:54;;;;;;;5.30;3.13;;;16.70;99.90;;;;;;4200273;28;20257;-70
2023/01/02 04:14:00;;;;;;;4.97;3.28;;;16.70;99.90;;;;;;4211062;28;20704;-69
2023/01/02 04:16:04;;;;;;;4.80;3.00;;;16.70;99.90;;;;;;4205905;28;20712;-70
2023/01/02 04:18:10;;;;;;;5.00;3.10;;;16.70;99.90;;;;;;4221435;28;20217;-70
2023/01/02 04:20:17;;;;;;;4.38;3.20;;;16.70;99.90;;;;;;4212793;28;20206;-70
2023/01/02 04:22:24;;;;;;;3.92;3.05;;;16.70;99.90;;;;;;4205726;28;20211;-70
2023/01/02 04:24:30;;;;;;;5.25;3.35;;;16.70;99.90;;;;;;4210197;28;20292;-70
2023/01/02 04:26:40;;;;;;;4.60;3.42;;;16.70;99.90;;;;;;4212972;28;20215;-70
2023/01/02 04:28:43;;;;;;;4.00;3.10;;;16.70;99.90;;;;;;4213014;28;20218;-69
2023/01/02 04:30:51;;;;;;;4.32;2.85;;;16.70;99.90;;;;;;4212754;28;20567;-70
2023/01/02 04:32:56;;;;;;;4.60;3.22;;;16.70;99.90;;;;;;4212242;28;20217;-70
2023/01/02 04:35:04;;;;;;;3.88;3.05;;;16.80;99.90;;;;;;4212419;28;20616;-70
2023/01/02 04:37:07;;;;;;;5.07;3.20;;;16.70;99.90;;;;;;4212700;28;20218;-70
2023/01/02 04:39:09;;;;;;;4.78;3.15;;;16.80;99.90;;;;;;4204691;28;20222;-70
2023/01/02 04:41:14;;;;;;;5.13;3.10;;;16.70;99.90;;;;;;4201395;28;20283;-70
2023/01/02 04:43:20;;;;;;;4.93;3.20;;;16.70;99.90;;;;;;4212627;28;20275;-70
2023/01/02 04:45:23;;;;;;;4.20;2.85;;;16.70;99.90;;;;;;4203513;28;20280;-70
2023/01/02 04:47:25;;;;;;;6.15;3.42;;;16.70;99.90;;;;;;4212181;28;20218;-70
2023/01/02 04:49:28;;;;;;;4.38;3.20;;;16.70;99.90;;;;;;4208066;28;20222;-70
2023/01/02 04:51:31;;;;;;;4.13;3.20;;;16.70;99.90;;;;;;4207397;28;20211;-70
2023/01/02 04:53:33;;;;;;;4.45;3.17;;;16.70;99.90;;;;;;4210134;28;20210;-70
2023/01/02 04:55:35;;;;;;;3.95;3.10;;;16.70;99.90;;;;;;4205086;28;20222;-70
2023/01/02 04:57:38;;;;;;;3.72;3.20;;;16.80;99.90;;;;;;4209413;28;20214;-70
2023/01/02 04:59:42;;;;;;;3.83;2.80;;;16.70;99.90;;;;;;4212044;28;20283;-70
2023/01/02 05:01:44;;;;;;;5.25;2.90;;;16.70;99.90;;;;;;4212519;28;20210;-70
2023/01/02 05:03:50;;;;;;;4.55;3.20;;;16.70;99.90;;;;;;4212318;28;20230;-69
2023/01/02 05:06:00;;;;;;;4.03;3.13;;;16.70;99.90;;;;;;4204495;28;20280;-69
2023/01/02 05:08:02;;;;;;;3.97;2.80;;;16.70;99.90;;;;;;4211067;28;20619;-70
2023/01/02 05:10:05;;;;;;;3.70;2.90;;;16.70;99.90;;;;;;4212586;28;20256;-69
2023/01/02 05:12:07;;;;;;;3.80;2.80;;;16.70;99.90;;;;;;4203072;28;20376;-70
2023/01/02 05:14:10;;;;;;;3.70;2.83;;;16.70;99.90;;;;;;4206968;28;20677;-70
2023/01/02 05:16:14;;;;;;;3.53;2.60;;;16.70;99.90;;;;;;4202910;28;20220;-69
2023/01/02 05:18:16;;;;;;;4.85;3.20;;;16.70;99.90;;;;;;4198981;28;20256;-70
2023/01/02 05:20:19;;;;;;;5.00;3.30;;;16.70;99.90;;;;;;4195866;28;20659;-70
2023/01/02 05:24:55;;;;;;;3.42;2.78;;;16.70;99.90;;;;;;4166757;28;20277;-70
2023/01/02 05:26:57;;;;;;;3.80;2.72;;;16.70;99.90;;;;;;4168860;28;20212;-69
2023/01/02 05:29:00;;;;;;;3.75;2.67;;;16.70;99.90;;;;;;4171804;28;20250;-69
2023/01/02 05:31:03;;;;;;;3.78;2.70;;;16.70;99.90;;;;;;4209287;28;20263;-69
2023/01/02 05:33:06;;;;;;;3.78;2.78;;;16.70;99.90;;;;;;4210379;28;20264;-69
2023/01/02 05:35:09;;;;;;;3.53;2.92;;;16.70;99.90;;;;;;4203814;28;20211;-69
2023/01/02 05:37:12;;;;;;;5.55;2.88;;;16.70;99.90;;;;;;4199957;28;20219;-69
2023/01/02 05:39:14;;;;;;;3.15;2.85;;;16.70;99.90;;;;;;4211687;28;20214;-69
2023/01/02 05:41:16;;;;;;;3.88;3.00;;;16.70;99.90;;;;;;4204446;28;20215;-69
2023/01/02 05:43:19;;;;;;;3.65;2.65;;;16.70;99.90;;;;;;4204760;28;20203;-69
2023/01/02 05:45:21;;;;;;;3.05;2.75;;;16.70;99.90;;;;;;4212500;28;20230;-69
2023/01/02 05:47:23;;;;;;;4.18;2.97;;;16.70;99.90;;;;;;4202581;28;20219;-69
2023/01/02 05:49:27;;;;;;;4.68;2.65;;;16.70;99.90;;;;;;4201889;28;20229;-69
2023/01/02 05:51:30;;;;;;;4.40;3.00;;;16.70;99.90;;;;;;4211173;28;20639;-69
2023/01/02 05:53:32;;;;;;;5.53;3.17;;;16.70;99.90;;;;;;4199564;28;20269;-69
2023/01/02 05:55:34;;;;;;;4.88;3.10;;;16.70;99.90;;;;;;4206779;28;20255;-69
2023/01/02 05:57:37;;;;;;;4.28;2.83;;;16.70;99.90;;;;;;4208980;28;20279;-69
2023/01/02 05:59:39;;;;;;;3.30;2.63;;;16.70;99.90;;;;;;4211513;28;20288;-69
2023/01/02 06:01:41;;;;;;;4.10;2.60;;;16.70;99.90;;;;;;4199978;28;20260;-69
2023/01/02 06:03:45;;;;;;;3.30;2.85;;;16.70;99.90;;;;;;4211700;28;20226;-69
2023/01/02 06:05:49;;;;;;;4.03;2.97;;;16.70;99.90;;;;;;4205170;28;20210;-69
2023/01/02 06:07:51;;;;;;;3.08;2.72;;;16.70;99.90;;;;;;4209877;28;20272;-69
2023/01/02 06:09:53;;;;;;;4.07;2.80;;;16.70;99.90;;;;;;4215021;28;20260;-69
2023/01/02 06:11:56;;;;;;;3.83;2.72;;;16.70;99.90;;;;;;4204167;28;20211;-69
2023/01/02 06:13:58;;;;;;;3.40;2.53;;;16.70;99.90;;;;;;4207401;28;20211;-69
2023/01/02 06:16:02;;;;;;;3.60;2.65;;;16.70;99.90;;;;;;4208680;28;20280;-69
2023/01/02 06:18:04;;;;;;;4.30;2.97;;;16.70;99.90;;;;;;4200789;28;20291;-69
2023/01/02 06:20:08;;;;;;;4.03;3.00;;;16.70;99.90;;;;;;4203837;28;20569;-70
2023/01/02 06:22:12;;;;;;;3.00;2.22;;;16.60;99.90;;;;;;4198554;28;20705;-69
2023/01/02 06:24:14;;;;;;;3.03;2.40;;;16.70;99.90;;;;;;4210737;28;20256;-69
2023/01/02 06:26:18;;;;;;;3.33;2.47;;;16.70;99.90;;;;;;4213884;28;20211;-69
2023/01/02 06:28:21;;;;;;;2.92;2.47;;;16.70;99.90;;;;;;4213625;28;20214;-69
2023/01/02 06:30:23;;;;;;;3.25;2.50;;;16.70;99.90;;;;;;4206791;28;20210;-69
2023/01/02 06:32:26;;;;;;;4.65;3.08;;;16.70;99.90;;;;;;4211475;28;20218;-69
2023/01/02 06:34:28;;;;;;;4.45;2.85;;;16.70;99.90;;;;;;4214375;28;20564;-69
2023/01/02 06:36:32;;;;;;;3.63;2.50;;;16.60;99.90;;;;;;4214774;28;20268;-69
2023/01/02 06:38:36;;;;;;;4.28;2.83;;;16.60;99.90;;;;;;4211796;28;20558;-69
2023/01/02 06:40:39;;;;;;;4.78;3.03;;;16.60;99.90;;;;;;4211954;28;20628;-69
2023/01/02 06:42:43;;;;;;;3.83;2.55;;;16.60;99.90;;;;;;4210762;28;20223;-69
2023/01/02 06:44:46;;;;;;;3.10;2.67;;;16.60;99.90;;;;;;4206000;28;20230;-69
2023/01/02 06:46:48;;;;;;;2.95;2.45;;;16.60;99.90;;;;;;4209770;28;20211;-69
2023/01/02 06:48:51;;;;;;;2.85;2.50;;;16.60;99.90;;;;;;4199065;28;20269;-69
2023/01/02 06:50:54;;;;;;;4.78;2.67;;;16.60;99.90;;;;;;4213228;28;20218;-69
2023/01/02 06:52:56;;;;;;;3.30;2.50;;;16.70;99.90;;;;;;4213941;28;20260;-69
2023/01/02 06:55:00;;;;;;;3.33;2.22;;;16.70;99.90;;;;;;4214441;28;20259;-73
2023/01/02 06:57:02;;;;;;;3.83;2.40;;;16.80;99.90;;;;;;4204912;28;20211;-73
2023/01/02 06:59:04;;;;;;;3.67;2.55;;;16.70;99.90;;;;;;4210717;28;20234;-73
2023/01/02 07:01:11;;;;;;;3.40;2.47;;;16.70;99.90;;;;;;4202401;28;20215;-73
2023/01/02 07:03:13;;;;;;;3.10;2.22;;;16.80;99.90;;;;;;4213940;28;20220;-73
2023/01/02 07:05:16;;;;;;;4.15;2.38;;;16.80;99.90;;;;;;4205194;28;20276;-73
2023/01/02 07:07:18;;;;;;;3.55;2.30;;;16.80;99.90;;;;;;4205254;28;20218;-73
2023/01/02 07:09:20;;;;;;;2.30;2.10;;;16.80;99.90;;;;;;4205497;28;20219;-69
2023/01/02 07:11:25;;;;;;;3.88;2.20;;;16.80;99.90;;;;;;4207315;28;21051;-69
2023/01/02 07:13:28;;;;;;;3.30;2.40;;;16.80;99.90;;;;;;4212664;28;20297;-69
2023/01/02 07:15:31;;;;;;;3.30;2.63;;;16.90;99.90;;;;;;4204754;28;20215;-69
2023/01/02 07:17:33;;;;;;;2.90;2.50;;;16.90;99.90;;;;;;4213564;28;20612;-69
2023/01/02 07:19:36;;;;;;;4.13;2.80;;;16.90;99.90;;;;;;4213382;28;20289;-69
2023/01/02 07:21:38;;;;;;;3.28;2.25;;;16.90;99.90;;;;;;4214078;28;20218;-69
2023/01/02 07:23:41;;;;;;;3.95;2.67;;;16.90;99.90;;;;;;4209203;28;20218;-69
2023/01/02 07:25:43;;;;;;;3.42;2.42;;;16.90;99.90;;;;;;4213618;28;20238;-69
2023/01/02 07:27:47;;;;;;;3.28;2.28;;;16.90;99.90;;;;;;4214017;28;20643;-69
2023/01/02 07:29:50;;;;;;;3.40;2.35;;;16.90;99.90;;;;;;4208710;28;20659;-69
2023/01/02 07:31:52;;;;;;;4.20;2.47;;;16.90;99.90;;;;;;4197192;28;20220;-69
2023/01/02 07:33:54;;;;;;;3.47;2.33;;;17.00;99.90;;;;;;4209569;28;20214;-69
2023/01/02 07:35:58;;;;;;;2.72;2.30;;;17.00;99.90;;;;;;4213993;28;20323;-69
2023/01/02 07:38:00;;;;;;;2.50;2.22;;;17.00;99.90;;;;;;4199467;28;20211;-69
2023/01/02 07:40:02;;;;;;;3.97;2.40;;;17.00;99.90;;;;;;4206578;28;20719;-69
2023/01/02 07:42:05;;;;;;;3.42;2.30;;;17.00;99.90;;;;;;4210628;28;20214;-69
2023/01/02 07:44:09;;;;;;;2.75;2.28;;;17.00;99.90;;;;;;4197486;28;20215;-73
2023/01/02 07:46:12;;;;;;;4.43;2.33;;;17.00;99.90;;;;;;4213340;28;20260;-73
2023/01/02 07:48:14;;;;;;;3.15;2.25;;;17.00;99.90;;;;;;4205795;28;20633;-69
2023/01/02 07:50:17;;;;;;;2.88;2.25;;;17.00;99.90;;;;;;4207367;28;20259;-69
2023/01/02 07:52:19;;;;;;;2.90;2.45;;;17.00;99.90;;;;;;4197719;28;20219;-73
2023/01/02 07:54:22;;;;;;;2.17;1.80;;;17.10;99.90;;;;;;4212384;28;20602;-73
2023/01/02 07:56:24;;;;;;;2.90;2.25;;;17.10;99.90;;;;;;4198053;28;20207;-73
2023/01/02 07:58:27;;;;;;;2.78;2.08;;;17.10;99.90;;;;;;4211568;28;20945;-73
2023/01/02 08:00:31;;;;;;;2.45;2.10;;;17.10;99.90;;;;;;4213345;28;20655;-73
2023/01/02 08:02:33;;;;;;;3.15;1.92;;;17.10;99.90;;;;;;4213266;28;20647;-73
2023/01/02 08:04:36;;;;;;;2.80;2.08;;;17.10;99.90;;;;;;4213369;28;20214;-73
2023/01/02 08:06:40;;;;;;;3.30;2.03;;;17.10;99.90;;;;;;4213409;28;20230;-73
2023/01/02 08:08:43;;;;;;;2.50;2.20;;;17.10;99.90;;;;;;4211529;28;20211;-73
2023/01/02 08:10:45;;;;;;;3.33;2.33;;;17.20;99.90;;;;;;4212677;28;20664;-73
2023/01/02 08:12:47;;;;;;;2.28;2.05;;;17.10;99.90;;;;;;4208475;28;20268;-73
2023/01/02 08:14:50;;;;;;;2.47;2.25;;;17.10;99.90;;;;;;4209162;28;20214;-73
2023/01/02 08:16:53;;;;;;;2.65;2.17;;;17.10;99.90;;;;;;4213037;28;20237;-73
2023/01/02 08:18:56;;;;;;;2.33;2.03;;;17.10;99.90;;;;;;4213264;28;20214;-73
2023/01/02 08:20:58;;;;;;;2.53;2.15;;;17.10;99.90;;;;;;4213606;28;20631;-73
2023/01/02 08:23:01;;;;;;;4.00;2.13;;;17.20;99.90;;;;;;4212961;28;20255;-73
2023/01/02 08:25:04;;;;;;;2.55;2.05;;;17.20;99.90;;;;;;4212523;28;20218;-73
2023/01/02 08:27:06;;;;;;;3.53;2.20;;;17.20;99.90;;;;;;4203448;28;20243;-73
2023/01/02 08:29:08;;;;;;;3.65;2.28;;;17.10;99.90;;;;;;4203969;28;20254;-73
2023/01/02 08:31:13;;;;;;;2.67;2.00;;;17.20;99.90;;;;;;4207258;28;20215;-73
2023/01/02 08:33:16;;;;;;;2.20;1.92;;;17.20;99.90;;;;;;4204600;28;20218;-73
2023/01/02 08:35:19;;;;;;;3.08;2.47;;;17.20;99.90;;;;;;4204034;28;20219;-73
2023/01/02 08:37:22;;;;;;;2.65;2.10;;;17.20;99.90;;;;;;4195978;28;20268;-73
2023/01/02 08:39:24;;;;;;;1.77;1.60;;;17.20;99.90;;;;;;4205727;28;20237;-73
2023/01/02 08:41:33;;;;;;;2.63;2.17;;;17.20;99.90;;;;;;4202832;28;20556;-73
2023/01/02 08:43:36;;;;;;;2.78;2.10;;;17.20;99.90;;;;;;4207566;28;20218;-73
2023/01/02 08:45:39;;;;;;;2.28;1.98;;;17.20;99.90;;;;;;4200792;28;20272;-73
2023/01/02 08:47:41;;;;;;;2.50;2.03;;;17.20;99.90;;;;;;4201166;28;20267;-73
2023/01/02 08:49:45;;;;;;;2.58;1.90;;;17.20;99.90;;;;;;4208869;28;20974;-73
2023/01/02 08:51:47;;;;;;;2.55;2.00;;;17.20;99.90;;;;;;4212533;28;20210;-73
2023/01/02 08:53:50;;;;;;;1.98;1.80;;;17.30;99.90;;;;;;4212816;28;20218;-73
2023/01/02 08:55:52;;;;;;;3.78;2.15;;;17.20;99.90;;;;;;4212217;28;20255;-73
2023/01/02 08:57:54;;;;;;;2.70;2.03;;;17.30;99.90;;;;;;4210211;28;20215;-73
2023/01/02 08:59:57;;;;;;;3.08;2.20;;;17.30;99.90;;;;;;4210061;28;20230;-73
2023/01/02 09:01:59;;;;;;;2.35;1.75;;;17.30;99.90;;;;;;4201269;28;20214;-69
2023/01/02 09:04:02;;;;;;;1.90;1.70;;;17.30;99.90;;;;;;4212429;28;20271;-69
2023/01/02 09:06:06;;;;;;;3.08;2.03;;;17.30;99.90;;;;;;4212209;28;20234;-69
2023/01/02 09:08:08;;;;;;;3.15;1.90;;;17.30;99.90;;;;;;4211906;28;20214;-69
2023/01/02 09:10:11;;;;;;;2.65;1.90;;;17.30;99.90;;;;;;4212207;28;20210;-69
2023/01/02 09:12:13;;;;;;;2.20;2.00;;;17.30;99.90;;;;;;4204407;28;20278;-69
2023/01/02 09:14:17;;;;;;;1.88;1.58;;;17.30;99.90;;;;;;4207717;28;20272;-69
2023/01/02 09:16:19;;;;;;;2.10;1.58;;;17.30;99.90;;;;;;4210695;28;20214;-69
2023/01/02 09:18:22;;;;;;;1.92;1.70;;;17.40;99.90;;;;;;4211688;28;20218;-69
2023/01/02 09:20:24;;;;;;;2.35;1.80;;;17.40;99.90;;;;;;4202075;28;20287;-69
2023/01/02 09:22:28;;;;;;;1.63;1.52;;;17.40;99.90;;;;;;4206748;28;20283;-69
2023/01/02 09:24:30;;;;;;;2.63;1.90;;;17.40;99.90;;;;;;4198481;28;20663;-69
2023/01/02 09:26:32;;;;;;;2.15;1.80;;;17.40;99.90;;;;;;4209440;28;20237;-69
2023/01/02 09:28:36;;;;;;;2.95;1.98;;;17.40;99.90;;;;;;4195837;28;20264;-69
2023/01/02 09:30:38;;;;;;;2.38;1.90;;;17.40;99.90;;;;;;4207707;28;20214;-69
2023/01/02 09:32:40;;;;;;;2.38;2.05;;;17.40;99.90;;;;;;4212372;28;20255;-69
2023/01/02 09:34:49;;;;;;;2.75;2.03;;;17.40;99.90;;;;;;4206893;28;20211;-69
2023/01/02 09:36:51;;;;;;;2.85;1.73;;;17.40;99.90;;;;;;4200016;28;20260;-70
2023/01/02 09:38:56;;;;;;;1.60;1.50;;;17.40;99.90;;;;;;4203251;28;20219;-69
2023/01/02 09:41:01;;;;;;;2.35;1.80;;;17.50;99.90;;;;;;4198905;28;20214;-69
2023/01/02 09:43:03;;;;;;;2.22;1.63;;;17.50;99.90;;;;;;4214429;28;20206;-69
2023/01/02 09:45:09;;;;;;;2.70;1.70;;;17.50;99.90;;;;;;4215592;28;20211;-70
2023/01/02 09:47:16;;;;;;;2.92;1.67;;;17.50;99.90;;;;;;4215089;28;20242;-69
2023/01/02 09:49:21;;;;;;;2.35;1.80;;;17.50;99.90;;;;;;4215389;28;20267;-69
2023/01/02 09:51:23;;;;;;;2.25;1.80;;;17.50;99.90;;;;;;4206823;28;20330;-69
2023/01/02 09:53:26;;;;;;;2.10;1.90;;;17.50;99.90;;;;;;4203046;28;20220;-69
2023/01/02 09:55:43;;;;;;;2.60;1.80;;;17.50;99.90;;;;;;4215462;28;20219;-69
2023/01/02 09:57:55;;;;;;;2.17;1.80;;;17.50;99.90;;;;;;4208057;28;20263;-69
2023/01/02 10:00:04;;;;;;;2.05;1.70;;;17.50;99.90;;;;;;4212859;28;20230;-69
2023/01/02 10:02:24;;;;;;;2.15;1.63;;;17.50;99.90;;;;;;4203525;28;20271;-69
2023/01/02 10:04:36;;;;;;;2.22;1.80;;;17.50;99.90;;;;;;4200141;28;20245;-69
2023/01/02 10:06:44;;;;;;;2.00;1.60;;;17.60;99.90;;;;;;4215316;28;20751;-69
2023/01/02 10:08:57;;;;;;;2.25;1.58;;;17.60;99.90;;;;;;4214450;28;20206;-69
2023/01/02 10:11:11;;;;;;;2.08;1.60;;;17.60;99.90;;;;;;4214833;28;20279;-69
2023/01/02 10:13:21;;;;;;;2.60;1.70;;;17.60;99.90;;;;;;4206542;28;20206;-70
2023/01/02 10:15:26;;;;;;;1.83;1.60;;;17.60;99.90;;;;;;4215198;28;20219;-69
2023/01/02 10:17:33;;;;;;;2.55;1.60;;;17.60;99.90;;;;;;4214752;28;20593;-69
2023/01/02 10:19:51;;;;;;;1.88;1.58;;;17.60;99.90;;;;;;4215150;28;20219;-71
2023/01/02 10:21:58;;;;;;;3.05;1.63;;;17.60;99.90;;;;;;4215071;28;20218;-69
2023/01/02 10:24:05;;;;;;;2.33;1.60;;;17.60;99.90;;;;;;4211103;28;20214;-69
2023/01/02 10:26:15;;;;;;;1.90;1.75;;;17.60;99.90;;;;;;4213901;28;20275;-69
2023/01/02 10:28:27;;;;;;;1.92;1.70;;;17.60;99.90;;;;;;4203814;28;20654;-70
2023/01/02 10:30:35;;;;;;;1.40;1.30;;;17.60;99.90;;;;;;4198429;28;20211;-69
2023/01/02 10:32:39;;;;;;;1.88;1.65;;;17.60;99.90;;;;;;4211475;28;20272;-70
2023/01/02 10:34:45;;;;;;;1.70;1.30;;;17.60;99.90;;;;;;4215080;28;20209;-69
2023/01/02 10:36:49;;;;;;;2.17;1.48;;;17.70;99.90;;;;;;4214933;28;20256;-69
2023/01/02 10:38:52;;;;;;;1.83;1.70;;;17.60;99.90;;;;;;4214693;28;20210;-69
2023/01/02 10:40:54;;;;;;;1.70;1.52;;;17.70;99.90;;;;;;4214108;28;20617;-69
2023/01/02 10:43:00;;;;;;;2.08;1.45;;;17.70;99.90;;;;;;4207976;28;20599;-69
2023/01/02 10:45:02;;;;;;;2.15;1.45;;;17.70;99.90;;;;;;4208753;28;20207;-69
2023/01/02 10:47:13;;;;;;;1.42;1.25;;;17.70;99.90;;;;;;4214423;28;20234;-69
2023/01/02 10:49:16;;;;;;;1.85;1.55;;;17.70;99.90;;;;;;4211114;28;20267;-69
2023/01/02 10:51:19;;;;;;;1.50;1.40;;;17.70;99.90;;;;;;4214282;28;20222;-69
2023/01/02 10:53:31;;;;;;;1.88;1.60;;;17.70;99.90;;;;;;4204711;28;20219;-69